sensor_id;sensor_type;location;lat;lon;timestamp;temperature;humidity
15343;DHT22;7771;48.478;8.936;2023-04-29T00:02:21;14.40;99.90
15343;DHT22;7771;48.478;8.936;2023-04-29T00:04:48;14.40;99.90
15343;DHT22;7771;48.478;8.936;2023-04-29T00:07:15;14.40;99.90
15343;DHT22;7771;48.478;8.936;2023-04-29T00:09:42;14.40;99.90
15343;DHT22;7771;48.478;8.936;2023-04-29T00:12:11;14.30;99.90
15343;DHT22;7771;48.478;8.936;2023-04-29T00:14:39;14.30;99.90
15343;DHT22;7771;48.478;8.936;2023-04-29T00:17:05;14.30;99.90
15343;DHT22;7771;48.478;8.936;2023-04-29T00:22:00;14.10;99.90
15343;DHT22;7771;48.478;8.936;2023-04-29T00:26:56;14.10;99.90
15343;DHT22;7771;48.478;8.936;2023-04-29T00:29:23;14.00;99.90
15343;DHT22;7771;48.478;8.936;2023-04-29T00:31:51;14.00;99.90
15343;DHT22;7771;48.478;8.936;2023-04-29T00:34:18;13.90;99.90
15343;DHT22;7771;48.478;8.936;2023-04-29T00:36:45;13.90;99.90
15343;DHT22;7771;48.478;8.936;2023-04-29T00:39:12;13.90;99.90
15343;DHT22;7771;48.478;8.936;2023-04-29T00:41:38;13.90;99.90
15343;DHT22;7771;48.478;8.936;2023-04-29T00:44:05;13.90;99.90
15343;DHT22;7771;48.478;8.936;2023-04-29T00:46:33;13.90;99.90
15343;DHT22;7771;48.478;8.936;2023-04-29T00:51:29;13.90;99.90
15343;DHT22;7771;48.478;8.936;2023-04-29T00:56:23;13.90;99.90
15343;DHT22;7771;48.478;8.936;2023-04-29T00:58:51;13.90;99.90
15343;DHT22;7771;48.478;8.936;2023-04-29T01:01:19;13.90;99.90
15343;DHT22;7771;48.478;8.936;2023-04-29T01:03:45;13.90;99.90
15343;DHT22;7771;48.478;8.936;2023-04-29T01:06:29;13.90;99.90
15343;DHT22;7771;48.478;8.936;2023-04-29T01:08:59;13.80;99.90
15343;DHT22;7771;48.478;8.936;2023-04-29T01:11:21;13.80;99.90
15343;DHT22;7771;48.478;8.936;2023-04-29T01:13:50;13.80;99.90
15343;DHT22;7771;48.478;8.936;2023-04-29T01:16:20;13.80;99.90
15343;DHT22;7771;48.478;8.936;2023-04-29T01:18:45;13.70;99.90
15343;DHT22;7771;48.478;8.936;2023-04-29T01:21:11;13.80;99.90
15343;DHT22;7771;48.478;8.936;2023-04-29T01:23:38;13.80;99.90
15343;DHT22;7771;48.478;8.936;2023-04-29T01:26:04;13.80;99.90
15343;DHT22;7771;48.478;8.936;2023-04-29T01:28:54;13.80;99.90
15343;DHT22;7771;48.478;8.936;2023-04-29T01:31:30;13.80;99.90
15343;DHT22;7771;48.478;8.936;2023-04-29T01:34:06;13.70;99.90
15343;DHT22;7771;48.478;8.936;2023-04-29T01:36:44;13.60;99.90
15343;DHT22;7771;48.478;8.936;2023-04-29T01:39:17;13.60;99.90
15343;DHT22;7771;48.478;8.936;2023-04-29T01:41:51;13.50;99.90
15343;DHT22;7771;48.478;8.936;2023-04-29T01:44:19;13.50;99.90
15343;DHT22;7771;48.478;8.936;2023-04-29T01:46:52;13.50;99.90
15343;DHT22;7771;48.478;8.936;2023-04-29T01:49:11;13.40;99.90
15343;DHT22;7771;48.478;8.936;2023-04-29T01:54:06;13.40;99.90
15343;DHT22;7771;48.478;8.936;2023-04-29T01:56:33;13.30;99.90
15343;DHT22;7771;48.478;8.936;2023-04-29T01:58:59;13.30;99.90
15343;DHT22;7771;48.478;8.936;2023-04-29T02:01:27;13.30;99.90
15343;DHT22;7771;48.478;8.936;2023-04-29T02:03:53;13.20;99.90
15343;DHT22;7771;48.478;8.936;2023-04-29T02:06:21;13.20;99.90
15343;DHT22;7771;48.478;8.936;2023-04-29T02:08:48;13.20;99.90
15343;DHT22;7771;48.478;8.936;2023-04-29T02:11:15;13.20;99.90
15343;DHT22;7771;48.478;8.936;2023-04-29T02:13:42;13.20;99.90
15343;DHT22;7771;48.478;8.936;2023-04-29T02:16:10;13.20;99.90
15343;DHT22;7771;48.478;8.936;2023-04-29T02:18:36;13.10;99.90
15343;DHT22;7771;48.478;8.936;2023-04-29T02:21:03;13.10;99.90
15343;DHT22;7771;48.478;8.936;2023-04-29T02:23:30;13.10;99.90
15343;DHT22;7771;48.478;8.936;2023-04-29T02:25:56;13.10;99.90
15343;DHT22;7771;48.478;8.936;2023-04-29T02:28:24;13.00;99.90
15343;DHT22;7771;48.478;8.936;2023-04-29T02:30:50;13.00;99.90
15343;DHT22;7771;48.478;8.936;2023-04-29T02:33:17;13.00;99.90
15343;DHT22;7771;48.478;8.936;2023-04-29T02:35:45;13.00;99.90
15343;DHT22;7771;48.478;8.936;2023-04-29T02:38:12;12.90;99.90
15343;DHT22;7771;48.478;8.936;2023-04-29T02:40:40;12.90;99.90
15343;DHT22;7771;48.478;8.936;2023-04-29T02:43:07;12.90;99.90
15343;DHT22;7771;48.478;8.936;2023-04-29T02:48:01;13.00;99.90
15343;DHT22;7771;48.478;8.936;2023-04-29T02:50:29;12.90;99.90
15343;DHT22;7771;48.478;8.936;2023-04-29T02:52:55;13.00;99.90
15343;DHT22;7771;48.478;8.936;2023-04-29T02:55:23;13.00;99.90
15343;DHT22;7771;48.478;8.936;2023-04-29T02:57:49;13.00;99.90
15343;DHT22;7771;48.478;8.936;2023-04-29T03:00:16;13.00;99.90
15343;DHT22;7771;48.478;8.936;2023-04-29T03:02:42;13.00;99.90
15343;DHT22;7771;48.478;8.936;2023-04-29T03:05:10;12.90;99.90
15343;DHT22;7771;48.478;8.936;2023-04-29T03:07:38;12.90;99.90
15343;DHT22;7771;48.478;8.936;2023-04-29T03:10:05;12.90;99.90
15343;DHT22;7771;48.478;8.936;2023-04-29T03:12:32;12.90;99.90
15343;DHT22;7771;48.478;8.936;2023-04-29T03:14:58;12.80;99.90
15343;DHT22;7771;48.478;8.936;2023-04-29T03:17:26;12.80;99.90
15343;DHT22;7771;48.478;8.936;2023-04-29T03:19:52;12.80;99.90
15343;DHT22;7771;48.478;8.936;2023-04-29T03:24:47;12.80;99.90
15343;DHT22;7771;48.478;8.936;2023-04-29T03:29:43;12.80;99.90
15343;DHT22;7771;48.478;8.936;2023-04-29T03:32:10;12.80;99.90
15343;DHT22;7771;48.478;8.936;2023-04-29T03:34:37;12.80;99.90
15343;DHT22;7771;48.478;8.936;2023-04-29T03:37:05;12.90;99.90
15343;DHT22;7771;48.478;8.936;2023-04-29T03:39:31;12.90;99.90
15343;DHT22;7771;48.478;8.936;2023-04-29T03:42:00;12.80;99.90
15343;DHT22;7771;48.478;8.936;2023-04-29T03:46:55;12.90;99.90
15343;DHT22;7771;48.478;8.936;2023-04-29T03:49:22;12.80;99.90
15343;DHT22;7771;48.478;8.936;2023-04-29T03:54:17;12.80;99.90
15343;DHT22;7771;48.478;8.936;2023-04-29T03:56:44;12.80;99.90
15343;DHT22;7771;48.478;8.936;2023-04-29T03:59:11;12.70;99.90
15343;DHT22;7771;48.478;8.936;2023-04-29T04:01:38;12.70;99.90
15343;DHT22;7771;48.478;8.936;2023-04-29T04:04:04;12.70;99.90
15343;DHT22;7771;48.478;8.936;2023-04-29T04:06:32;12.70;99.90
15343;DHT22;7771;48.478;8.936;2023-04-29T04:09:00;12.70;99.90
15343;DHT22;7771;48.478;8.936;2023-04-29T04:11:26;12.70;99.90
15343;DHT22;7771;48.478;8.936;2023-04-29T04:13:55;12.70;99.90
15343;DHT22;7771;48.478;8.936;2023-04-29T04:16:22;12.70;99.90
15343;DHT22;7771;48.478;8.936;2023-04-29T04:18:49;12.70;99.90
15343;DHT22;7771;48.478;8.936;2023-04-29T04:23:45;12.60;99.90
15343;DHT22;7771;48.478;8.936;2023-04-29T04:26:12;12.60;99.90
15343;DHT22;7771;48.478;8.936;2023-04-29T04:31:07;12.60;99.90
15343;DHT22;7771;48.478;8.936;2023-04-29T04:36:02;12.50;99.90
15343;DHT22;7771;48.478;8.936;2023-04-29T04:38:29;12.50;99.90
15343;DHT22;7771;48.478;8.936;2023-04-29T04:40:56;12.50;99.90
15343;DHT22;7771;48.478;8.936;2023-04-29T04:43:22;12.40;99.90
15343;DHT22;7771;48.478;8.936;2023-04-29T04:45:49;12.40;99.90
15343;DHT22;7771;48.478;8.936;2023-04-29T04:48:15;12.40;99.90
15343;DHT22;7771;48.478;8.936;2023-04-29T04:50:42;12.50;99.90
15343;DHT22;7771;48.478;8.936;2023-04-29T04:53:10;12.40;99.90
15343;DHT22;7771;48.478;8.936;2023-04-29T04:55:36;12.50;99.90
15343;DHT22;7771;48.478;8.936;2023-04-29T04:58:04;12.50;99.90
15343;DHT22;7771;48.478;8.936;2023-04-29T05:00:32;12.50;99.90
15343;DHT22;7771;48.478;8.936;2023-04-29T05:03:00;12.50;99.90
15343;DHT22;7771;48.478;8.936;2023-04-29T05:05:27;12.60;99.90
15343;DHT22;7771;48.478;8.936;2023-04-29T05:07:54;12.50;99.90
15343;DHT22;7771;48.478;8.936;2023-04-29T05:12:49;12.60;99.90
15343;DHT22;7771;48.478;8.936;2023-04-29T05:15:15;12.60;99.90
15343;DHT22;7771;48.478;8.936;2023-04-29T05:17:43;12.60;99.90
15343;DHT22;7771;48.478;8.936;2023-04-29T05:20:11;12.60;99.90
15343;DHT22;7771;48.478;8.936;2023-04-29T05:22:39;12.60;99.90
15343;DHT22;7771;48.478;8.936;2023-04-29T05:25:07;12.60;99.90
15343;DHT22;7771;48.478;8.936;2023-04-29T05:27:33;12.60;99.90
15343;DHT22;7771;48.478;8.936;2023-04-29T05:30:01;12.70;99.90
15343;DHT22;7771;48.478;8.936;2023-04-29T05:32:28;12.70;99.90
15343;DHT22;7771;48.478;8.936;2023-04-29T05:34:55;12.70;99.90
15343;DHT22;7771;48.478;8.936;2023-04-29T05:37:22;12.70;99.90
15343;DHT22;7771;48.478;8.936;2023-04-29T05:39:48;12.60;99.90
15343;DHT22;7771;48.478;8.936;2023-04-29T05:42:16;12.70;99.90
15343;DHT22;7771;48.478;8.936;2023-04-29T05:44:43;12.70;99.90
15343;DHT22;7771;48.478;8.936;2023-04-29T05:47:10;12.70;99.90
15343;DHT22;7771;48.478;8.936;2023-04-29T05:49:38;12.70;99.90
15343;DHT22;7771;48.478;8.936;2023-04-29T05:52:05;12.70;99.90
15343;DHT22;7771;48.478;8.936;2023-04-29T05:54:32;12.70;99.90
15343;DHT22;7771;48.478;8.936;2023-04-29T05:59:29;12.80;99.90
15343;DHT22;7771;48.478;8.936;2023-04-29T06:01:57;12.80;99.90
15343;DHT22;7771;48.478;8.936;2023-04-29T06:04:25;12.90;99.90
15343;DHT22;7771;48.478;8.936;2023-04-29T06:06:54;12.90;99.90
15343;DHT22;7771;48.478;8.936;2023-04-29T06:11:49;13.00;99.90
15343;DHT22;7771;48.478;8.936;2023-04-29T06:14:17;13.10;99.90
15343;DHT22;7771;48.478;8.936;2023-04-29T06:16:45;13.20;99.90
15343;DHT22;7771;48.478;8.936;2023-04-29T06:19:13;13.30;99.90
15343;DHT22;7771;48.478;8.936;2023-04-29T06:21:41;13.40;99.90
15343;DHT22;7771;48.478;8.936;2023-04-29T06:24:08;13.50;99.90
15343;DHT22;7771;48.478;8.936;2023-04-29T06:29:03;13.70;99.90
15343;DHT22;7771;48.478;8.936;2023-04-29T06:31:30;13.80;99.90
15343;DHT22;7771;48.478;8.936;2023-04-29T06:33:57;14.00;99.90
15343;DHT22;7771;48.478;8.936;2023-04-29T06:36:26;14.10;99.90
15343;DHT22;7771;48.478;8.936;2023-04-29T06:38:52;14.40;99.90
15343;DHT22;7771;48.478;8.936;2023-04-29T06:41:20;14.60;99.90
15343;DHT22;7771;48.478;8.936;2023-04-29T06:43:48;14.70;99.90
15343;DHT22;7771;48.478;8.936;2023-04-29T06:46:14;14.80;99.90
15343;DHT22;7771;48.478;8.936;2023-04-29T06:51:09;15.10;99.90
15343;DHT22;7771;48.478;8.936;2023-04-29T06:53:37;15.30;99.90
15343;DHT22;7771;48.478;8.936;2023-04-29T06:56:05;15.60;99.90
15343;DHT22;7771;48.478;8.936;2023-04-29T06:58:32;15.80;99.90
15343;DHT22;7771;48.478;8.936;2023-04-29T07:00:59;16.00;99.90
15343;DHT22;7771;48.478;8.936;2023-04-29T07:03:26;16.30;99.90
15343;DHT22;7771;48.478;8.936;2023-04-29T07:05:53;16.60;99.90
15343;DHT22;7771;48.478;8.936;2023-04-29T07:08:19;17.10;99.90
15343;DHT22;7771;48.478;8.936;2023-04-29T07:10:53;17.70;99.90
15343;DHT22;7771;48.478;8.936;2023-04-29T07:13:19;18.30;99.90
15343;DHT22;7771;48.478;8.936;2023-04-29T07:15:46;18.60;99.90
15343;DHT22;7771;48.478;8.936;2023-04-29T07:18:14;18.70;99.90
15343;DHT22;7771;48.478;8.936;2023-04-29T07:20:41;18.70;99.90
15343;DHT22;7771;48.478;8.936;2023-04-29T07:23:08;18.90;99.90
15343;DHT22;7771;48.478;8.936;2023-04-29T07:25:35;19.70;99.90
15343;DHT22;7771;48.478;8.936;2023-04-29T07:28:02;20.90;99.90
15343;DHT22;7771;48.478;8.936;2023-04-29T07:32:57;23.30;99.90
15343;DHT22;7771;48.478;8.936;2023-04-29T07:35:24;24.40;99.90
15343;DHT22;7771;48.478;8.936;2023-04-29T07:37:51;25.40;98.90
15343;DHT22;7771;48.478;8.936;2023-04-29T07:40:17;26.30;97.40
15343;DHT22;7771;48.478;8.936;2023-04-29T07:42:44;27.10;95.00
15343;DHT22;7771;48.478;8.936;2023-04-29T07:45:11;28.00;93.70
15343;DHT22;7771;48.478;8.936;2023-04-29T07:47:38;29.00;92.10
15343;DHT22;7771;48.478;8.936;2023-04-29T07:50:05;29.80;89.60
15343;DHT22;7771;48.478;8.936;2023-04-29T07:52:32;30.30;84.80
15343;DHT22;7771;48.478;8.936;2023-04-29T07:55:00;30.60;80.40
15343;DHT22;7771;48.478;8.936;2023-04-29T07:57:27;30.10;78.70
15343;DHT22;7771;48.478;8.936;2023-04-29T07:59:53;29.30;78.90
15343;DHT22;7771;48.478;8.936;2023-04-29T08:02:20;28.40;79.50
15343;DHT22;7771;48.478;8.936;2023-04-29T08:04:48;27.50;81.50
15343;DHT22;7771;48.478;8.936;2023-04-29T08:07:15;26.60;83.00
15343;DHT22;7771;48.478;8.936;2023-04-29T08:09:41;25.90;84.00
15343;DHT22;7771;48.478;8.936;2023-04-29T08:12:09;25.20;85.10
15343;DHT22;7771;48.478;8.936;2023-04-29T08:14:36;24.50;87.30
15343;DHT22;7771;48.478;8.936;2023-04-29T08:19:32;23.40;89.60
15343;DHT22;7771;48.478;8.936;2023-04-29T08:22:00;22.90;90.20
15343;DHT22;7771;48.478;8.936;2023-04-29T08:24:28;22.50;91.00
15343;DHT22;7771;48.478;8.936;2023-04-29T08:29:22;21.90;92.00
15343;DHT22;7771;48.478;8.936;2023-04-29T08:34:18;21.10;93.10
15343;DHT22;7771;48.478;8.936;2023-04-29T08:36:45;20.90;93.50
15343;DHT22;7771;48.478;8.936;2023-04-29T08:39:12;20.60;94.10
15343;DHT22;7771;48.478;8.936;2023-04-29T08:44:07;20.50;95.10
15343;DHT22;7771;48.478;8.936;2023-04-29T08:46:35;20.60;94.70
15343;DHT22;7771;48.478;8.936;2023-04-29T08:49:02;20.70;94.20
15343;DHT22;7771;48.478;8.936;2023-04-29T08:51:29;20.80;94.20
15343;DHT22;7771;48.478;8.936;2023-04-29T08:56:23;21.20;93.90
15343;DHT22;7771;48.478;8.936;2023-04-29T09:01:18;21.50;93.90
15343;DHT22;7771;48.478;8.936;2023-04-29T09:03:49;21.60;93.40
15343;DHT22;7771;48.478;8.936;2023-04-29T09:06:14;21.60;93.10
15343;DHT22;7771;48.478;8.936;2023-04-29T09:11:10;21.40;93.20
15343;DHT22;7771;48.478;8.936;2023-04-29T09:13:38;21.40;93.30
15343;DHT22;7771;48.478;8.936;2023-04-29T09:16:09;21.20;93.70
15343;DHT22;7771;48.478;8.936;2023-04-29T09:18:40;21.20;93.80
15343;DHT22;7771;48.478;8.936;2023-04-29T09:21:13;21.20;93.60
15343;DHT22;7771;48.478;8.936;2023-04-29T09:23:40;21.20;93.30
15343;DHT22;7771;48.478;8.936;2023-04-29T09:26:07;21.10;93.10
15343;DHT22;7771;48.478;8.936;2023-04-29T09:31:01;20.80;94.00
15343;DHT22;7771;48.478;8.936;2023-04-29T09:33:31;20.70;94.40
15343;DHT22;7771;48.478;8.936;2023-04-29T09:35:57;20.80;95.00
15343;DHT22;7771;48.478;8.936;2023-04-29T09:38:25;21.00;94.70
15343;DHT22;7771;48.478;8.936;2023-04-29T09:43:39;21.40;94.20
15343;DHT22;7771;48.478;8.936;2023-04-29T09:46:05;21.50;93.60
15343;DHT22;7771;48.478;8.936;2023-04-29T09:51:00;22.00;93.40
15343;DHT22;7771;48.478;8.936;2023-04-29T09:53:28;22.20;93.40
15343;DHT22;7771;48.478;8.936;2023-04-29T09:58:31;22.50;92.70
15343;DHT22;7771;48.478;8.936;2023-04-29T10:00:58;22.40;92.40
15343;DHT22;7771;48.478;8.936;2023-04-29T10:03:30;22.20;92.70
15343;DHT22;7771;48.478;8.936;2023-04-29T10:08:24;22.00;92.70
15343;DHT22;7771;48.478;8.936;2023-04-29T10:10:52;22.00;93.30
15343;DHT22;7771;48.478;8.936;2023-04-29T10:13:20;22.20;92.90
15343;DHT22;7771;48.478;8.936;2023-04-29T10:15:48;22.20;92.00
15343;DHT22;7771;48.478;8.936;2023-04-29T10:18:19;22.10;92.10
15343;DHT22;7771;48.478;8.936;2023-04-29T10:23:13;21.70;92.20
15343;DHT22;7771;48.478;8.936;2023-04-29T10:33:05;22.10;92.00
15343;DHT22;7771;48.478;8.936;2023-04-29T10:35:31;22.10;92.30
15343;DHT22;7771;48.478;8.936;2023-04-29T10:37:59;22.20;91.80
15343;DHT22;7771;48.478;8.936;2023-04-29T10:40:35;22.10;92.00
15343;DHT22;7771;48.478;8.936;2023-04-29T10:42:57;22.10;91.80
15343;DHT22;7771;48.478;8.936;2023-04-29T10:45:26;22.30;91.40
15343;DHT22;7771;48.478;8.936;2023-04-29T10:53:28;21.90;90.60
15343;DHT22;7771;48.478;8.936;2023-04-29T10:55:56;21.60;91.70
15343;DHT22;7771;48.478;8.936;2023-04-29T10:58:33;21.40;92.60
15343;DHT22;7771;48.478;8.936;2023-04-29T11:01:00;21.20;93.00
15343;DHT22;7771;48.478;8.936;2023-04-29T11:06:08;21.10;93.90
15343;DHT22;7771;48.478;8.936;2023-04-29T11:08:36;21.00;93.80
15343;DHT22;7771;48.478;8.936;2023-04-29T11:11:04;21.00;93.00
15343;DHT22;7771;48.478;8.936;2023-04-29T11:13:31;21.00;93.60
15343;DHT22;7771;48.478;8.936;2023-04-29T11:16:06;21.00;93.80
15343;DHT22;7771;48.478;8.936;2023-04-29T11:18:34;21.10;94.00
15343;DHT22;7771;48.478;8.936;2023-04-29T11:21:11;21.30;92.80
15343;DHT22;7771;48.478;8.936;2023-04-29T11:23:45;21.40;92.40
15343;DHT22;7771;48.478;8.936;2023-04-29T11:26:13;21.50;92.80
15343;DHT22;7771;48.478;8.936;2023-04-29T11:28:40;21.60;93.10
15343;DHT22;7771;48.478;8.936;2023-04-29T11:31:07;21.70;92.60
15343;DHT22;7771;48.478;8.936;2023-04-29T11:36:04;21.80;91.90
15343;DHT22;7771;48.478;8.936;2023-04-29T11:38:31;21.70;91.80
15343;DHT22;7771;48.478;8.936;2023-04-29T11:40:58;21.70;91.60
15343;DHT22;7771;48.478;8.936;2023-04-29T11:43:26;21.70;91.40
15343;DHT22;7771;48.478;8.936;2023-04-29T11:45:52;21.80;91.70
15343;DHT22;7771;48.478;8.936;2023-04-29T11:48:21;21.90;91.40
15343;DHT22;7771;48.478;8.936;2023-04-29T11:50:49;21.90;91.60
15343;DHT22;7771;48.478;8.936;2023-04-29T11:53:18;22.00;91.20
15343;DHT22;7771;48.478;8.936;2023-04-29T11:55:43;22.00;91.60
15343;DHT22;7771;48.478;8.936;2023-04-29T11:58:09;22.10;91.10
15343;DHT22;7771;48.478;8.936;2023-04-29T12:00:36;22.10;90.60
15343;DHT22;7771;48.478;8.936;2023-04-29T12:05:38;22.10;90.40
15343;DHT22;7771;48.478;8.936;2023-04-29T12:08:06;22.00;90.60
15343;DHT22;7771;48.478;8.936;2023-04-29T12:10:34;21.90;90.10
15343;DHT22;7771;48.478;8.936;2023-04-29T12:13:02;21.90;90.10
15343;DHT22;7771;48.478;8.936;2023-04-29T12:15:29;21.90;90.00
15343;DHT22;7771;48.478;8.936;2023-04-29T12:17:55;21.90;91.80
15343;DHT22;7771;48.478;8.936;2023-04-29T12:20:23;21.80;91.70
15343;DHT22;7771;48.478;8.936;2023-04-29T12:22:52;21.50;92.20
15343;DHT22;7771;48.478;8.936;2023-04-29T12:25:17;21.30;92.40
15343;DHT22;7771;48.478;8.936;2023-04-29T12:27:50;21.20;92.80
15343;DHT22;7771;48.478;8.936;2023-04-29T12:30:17;21.10;92.90
15343;DHT22;7771;48.478;8.936;2023-04-29T12:32:44;20.90;92.90
15343;DHT22;7771;48.478;8.936;2023-04-29T12:35:14;20.70;93.40
15343;DHT22;7771;48.478;8.936;2023-04-29T12:37:40;20.60;93.30
15343;DHT22;7771;48.478;8.936;2023-04-29T12:40:15;20.40;93.80
15343;DHT22;7771;48.478;8.936;2023-04-29T12:45:08;20.20;94.20
15343;DHT22;7771;48.478;8.936;2023-04-29T12:47:35;20.30;94.10
15343;DHT22;7771;48.478;8.936;2023-04-29T12:50:02;20.40;93.70
15343;DHT22;7771;48.478;8.936;2023-04-29T12:52:30;20.30;94.10
15343;DHT22;7771;48.478;8.936;2023-04-29T12:55:06;20.20;94.30
15343;DHT22;7771;48.478;8.936;2023-04-29T12:57:32;20.10;94.20
15343;DHT22;7771;48.478;8.936;2023-04-29T12:59:59;20.20;94.10
15343;DHT22;7771;48.478;8.936;2023-04-29T13:02:27;20.30;93.30
15343;DHT22;7771;48.478;8.936;2023-04-29T13:04:55;20.40;93.70
15343;DHT22;7771;48.478;8.936;2023-04-29T13:07:21;20.50;93.80
15343;DHT22;7771;48.478;8.936;2023-04-29T13:09:49;20.70;93.60
15343;DHT22;7771;48.478;8.936;2023-04-29T13:12:16;20.70;93.40
15343;DHT22;7771;48.478;8.936;2023-04-29T13:14:43;20.80;93.30
15343;DHT22;7771;48.478;8.936;2023-04-29T13:17:10;20.70;93.00
15343;DHT22;7771;48.478;8.936;2023-04-29T13:19:37;20.60;93.40
15343;DHT22;7771;48.478;8.936;2023-04-29T13:22:04;20.50;93.20
15343;DHT22;7771;48.478;8.936;2023-04-29T13:24:31;20.50;93.10
15343;DHT22;7771;48.478;8.936;2023-04-29T13:26:59;20.40;93.00
15343;DHT22;7771;48.478;8.936;2023-04-29T13:29:27;20.40;93.40
15343;DHT22;7771;48.478;8.936;2023-04-29T13:31:54;20.40;93.40
15343;DHT22;7771;48.478;8.936;2023-04-29T13:34:22;20.40;93.30
15343;DHT22;7771;48.478;8.936;2023-04-29T13:36:48;20.40;93.30
15343;DHT22;7771;48.478;8.936;2023-04-29T13:39:15;20.60;93.10
15343;DHT22;7771;48.478;8.936;2023-04-29T13:41:42;20.70;92.90
15343;DHT22;7771;48.478;8.936;2023-04-29T13:44:10;20.70;92.60
15343;DHT22;7771;48.478;8.936;2023-04-29T13:46:38;20.60;92.70
15343;DHT22;7771;48.478;8.936;2023-04-29T13:49:05;20.60;92.50
15343;DHT22;7771;48.478;8.936;2023-04-29T13:51:32;20.60;92.80
15343;DHT22;7771;48.478;8.936;2023-04-29T13:56:28;20.50;93.30
15343;DHT22;7771;48.478;8.936;2023-04-29T13:58:55;20.50;93.50
15343;DHT22;7771;48.478;8.936;2023-04-29T14:01:21;20.60;93.30
15343;DHT22;7771;48.478;8.936;2023-04-29T14:03:48;20.60;93.10
15343;DHT22;7771;48.478;8.936;2023-04-29T14:06:16;20.50;92.70
15343;DHT22;7771;48.478;8.936;2023-04-29T14:13:40;20.40;92.20
15343;DHT22;7771;48.478;8.936;2023-04-29T14:16:07;20.50;92.10
15343;DHT22;7771;48.478;8.936;2023-04-29T14:21:04;20.50;91.70
15343;DHT22;7771;48.478;8.936;2023-04-29T14:23:30;20.50;91.60
15343;DHT22;7771;48.478;8.936;2023-04-29T14:25:58;20.60;91.30
15343;DHT22;7771;48.478;8.936;2023-04-29T14:28:24;20.50;91.70
15343;DHT22;7771;48.478;8.936;2023-04-29T14:30:52;20.50;91.40
15343;DHT22;7771;48.478;8.936;2023-04-29T14:33:19;20.40;91.40
15343;DHT22;7771;48.478;8.936;2023-04-29T14:35:46;20.40;91.30
15343;DHT22;7771;48.478;8.936;2023-04-29T14:38:13;20.20;93.60
15343;DHT22;7771;48.478;8.936;2023-04-29T14:43:08;19.90;94.60
15343;DHT22;7771;48.478;8.936;2023-04-29T14:45:35;19.70;95.20
15343;DHT22;7771;48.478;8.936;2023-04-29T14:48:03;19.60;95.30
15343;DHT22;7771;48.478;8.936;2023-04-29T14:50:29;19.50;95.40
15343;DHT22;7771;48.478;8.936;2023-04-29T14:55:24;19.20;95.80
15343;DHT22;7771;48.478;8.936;2023-04-29T15:00:20;19.00;96.50
15343;DHT22;7771;48.478;8.936;2023-04-29T15:02:47;18.90;96.70
15343;DHT22;7771;48.478;8.936;2023-04-29T15:05:14;18.90;96.60
15343;DHT22;7771;48.478;8.936;2023-04-29T15:10:08;18.80;96.60
15343;DHT22;7771;48.478;8.936;2023-04-29T15:15:04;18.70;96.80
15343;DHT22;7771;48.478;8.936;2023-04-29T15:17:32;18.60;97.00
15343;DHT22;7771;48.478;8.936;2023-04-29T15:19:58;18.70;97.10
15343;DHT22;7771;48.478;8.936;2023-04-29T15:22:26;18.80;96.80
15343;DHT22;7771;48.478;8.936;2023-04-29T15:24:52;18.80;96.90
15343;DHT22;7771;48.478;8.936;2023-04-29T15:27:19;18.80;96.80
15343;DHT22;7771;48.478;8.936;2023-04-29T15:29:47;18.80;97.20
15343;DHT22;7771;48.478;8.936;2023-04-29T15:32:14;18.80;96.70
15343;DHT22;7771;48.478;8.936;2023-04-29T15:37:11;18.70;97.10
15343;DHT22;7771;48.478;8.936;2023-04-29T15:39:37;18.60;97.30
15343;DHT22;7771;48.478;8.936;2023-04-29T15:44:32;18.50;97.40
15343;DHT22;7771;48.478;8.936;2023-04-29T15:46:59;18.50;97.60
15343;DHT22;7771;48.478;8.936;2023-04-29T15:49:27;18.40;97.10
15343;DHT22;7771;48.478;8.936;2023-04-29T15:51:55;18.40;97.30
15343;DHT22;7771;48.478;8.936;2023-04-29T15:54:23;18.30;97.50
15343;DHT22;7771;48.478;8.936;2023-04-29T15:56:50;18.40;97.40
15343;DHT22;7771;48.478;8.936;2023-04-29T15:59:16;18.60;97.10
15343;DHT22;7771;48.478;8.936;2023-04-29T16:01:44;18.90;96.80
15343;DHT22;7771;48.478;8.936;2023-04-29T16:04:10;19.10;96.50
15343;DHT22;7771;48.478;8.936;2023-04-29T16:06:38;19.20;96.60
15343;DHT22;7771;48.478;8.936;2023-04-29T16:09:04;19.10;96.50
15343;DHT22;7771;48.478;8.936;2023-04-29T16:11:31;19.00;96.20
15343;DHT22;7771;48.478;8.936;2023-04-29T16:13:58;18.90;96.50
15343;DHT22;7771;48.478;8.936;2023-04-29T16:16:26;18.70;96.20
15343;DHT22;7771;48.478;8.936;2023-04-29T16:18:52;18.60;96.60
15343;DHT22;7771;48.478;8.936;2023-04-29T16:21:19;18.40;96.90
15343;DHT22;7771;48.478;8.936;2023-04-29T16:23:46;18.30;96.80
15343;DHT22;7771;48.478;8.936;2023-04-29T16:26:13;18.20;96.60
15343;DHT22;7771;48.478;8.936;2023-04-29T16:28:41;18.10;97.30
15343;DHT22;7771;48.478;8.936;2023-04-29T16:31:09;18.00;97.50
15343;DHT22;7771;48.478;8.936;2023-04-29T16:36:05;17.90;97.90
15343;DHT22;7771;48.478;8.936;2023-04-29T16:38:31;17.80;97.70
15343;DHT22;7771;48.478;8.936;2023-04-29T16:43:26;17.70;98.10
15343;DHT22;7771;48.478;8.936;2023-04-29T16:45:54;17.70;98.70
15343;DHT22;7771;48.478;8.936;2023-04-29T16:48:21;17.60;98.00
15343;DHT22;7771;48.478;8.936;2023-04-29T16:50:48;17.60;98.20
15343;DHT22;7771;48.478;8.936;2023-04-29T16:53:15;17.60;98.10
15343;DHT22;7771;48.478;8.936;2023-04-29T16:55:42;17.50;98.40
15343;DHT22;7771;48.478;8.936;2023-04-29T16:58:09;17.40;98.30
15343;DHT22;7771;48.478;8.936;2023-04-29T17:00:36;17.20;98.70
15343;DHT22;7771;48.478;8.936;2023-04-29T17:03:04;17.10;99.00
15343;DHT22;7771;48.478;8.936;2023-04-29T17:05:31;17.00;99.10
15343;DHT22;7771;48.478;8.936;2023-04-29T17:07:59;17.00;99.10
15343;DHT22;7771;48.478;8.936;2023-04-29T17:10:26;17.00;99.00
15343;DHT22;7771;48.478;8.936;2023-04-29T17:12:54;16.90;98.90
15343;DHT22;7771;48.478;8.936;2023-04-29T17:17:50;16.70;99.30
15343;DHT22;7771;48.478;8.936;2023-04-29T17:20:18;16.60;99.30
15343;DHT22;7771;48.478;8.936;2023-04-29T17:22:44;16.50;99.30
15343;DHT22;7771;48.478;8.936;2023-04-29T17:25:11;16.40;99.30
15343;DHT22;7771;48.478;8.936;2023-04-29T17:27:41;16.40;99.70
15343;DHT22;7771;48.478;8.936;2023-04-29T17:37:32;16.10;99.90
15343;DHT22;7771;48.478;8.936;2023-04-29T17:39:59;16.00;99.90
15343;DHT22;7771;48.478;8.936;2023-04-29T17:42:26;16.10;99.90
15343;DHT22;7771;48.478;8.936;2023-04-29T17:44:53;16.10;99.90
15343;DHT22;7771;48.478;8.936;2023-04-29T17:47:21;16.10;99.90
15343;DHT22;7771;48.478;8.936;2023-04-29T17:49:48;16.00;99.90
15343;DHT22;7771;48.478;8.936;2023-04-29T17:52:15;15.90;99.90
15343;DHT22;7771;48.478;8.936;2023-04-29T17:59:38;15.80;99.90
15343;DHT22;7771;48.478;8.936;2023-04-29T18:02:06;15.80;99.90
15343;DHT22;7771;48.478;8.936;2023-04-29T18:04:33;15.80;99.90
15343;DHT22;7771;48.478;8.936;2023-04-29T18:07:00;15.70;99.90
15343;DHT22;7771;48.478;8.936;2023-04-29T18:09:27;15.70;99.90
15343;DHT22;7771;48.478;8.936;2023-04-29T18:11:53;15.70;99.90
15343;DHT22;7771;48.478;8.936;2023-04-29T18:14:20;15.60;99.90
15343;DHT22;7771;48.478;8.936;2023-04-29T18:16:47;15.60;99.90